»·PEaware :: N733UC L88-KSBP

N733UC :: L88-KSBP

FLIGHT INFORMATION

Flight Status: Arrived
Operator: Privately registered:
United States
More flights under this callsign
Pilot: Bill B. (19180)
Aircraft: CESSNA 172 SKYHAWK
(C172)
More flights by this aircraft type
Origin: L88 New Cuyama
United States
Destination: KSBP San Luis Co Regl
United States
More flights between these airports :: More routes between these airports
Route: FLW
File this flight plan on PilotEdge
Remarks: Cat 2
Altitude:
(Current/Filed)
6,500ft
Speed:
(Current/Filed)
110kts
Departed: 14-May-18 08:23 PM
Arrived: 14-May-18 08:56 PM
Distance/Time
Traveled:
50nm/0:33
Distance/Time
To Go:
Arrived

Flight Plot

Page will automatically refresh every two minutes.


Map Options




Map Legend


Flown Route
Filed Route
Departure Airport
Arrival Airport
Navaid (VOR, NDB)
Fix

Horizontal Profiles

Position Reports

Time Latitude Longitude Heading Altitude Ground
Speed
14-May-18 19:34 34.939816 -119.693383 23 2206ft 0kts
14-May-18 19:35 34.939816 -119.693383 23 2206ft 0kts
14-May-18 19:36 34.939816 -119.693383 23 2206ft 0kts
14-May-18 19:37 34.939816 -119.693383 23 2206ft 0kts
14-May-18 19:38 34.939816 -119.693383 23 2206ft 0kts
14-May-18 19:39 34.939816 -119.693383 23 2206ft 0kts
14-May-18 19:40 34.939816 -119.693383 23 2206ft 0kts
14-May-18 19:41 34.939816 -119.693383 23 2206ft 0kts
14-May-18 19:42 34.939816 -119.693383 23 2206ft 0kts
14-May-18 19:43 34.939816 -119.693383 23 2206ft 0kts
14-May-18 19:44 34.939816 -119.693383 23 2206ft 0kts
14-May-18 19:45 34.939816 -119.693383 23 2206ft 0kts
14-May-18 19:46 34.939816 -119.693383 23 2206ft 0kts
14-May-18 19:47 34.939816 -119.693383 23 2206ft 0kts
14-May-18 19:48 34.939816 -119.693383 23 2206ft 0kts
14-May-18 19:49 34.939816 -119.693383 23 2206ft 0kts
14-May-18 19:50 34.939816 -119.693383 23 2206ft 0kts
14-May-18 19:51 34.939816 -119.693383 23 2206ft 0kts
14-May-18 19:52 34.939816 -119.693383 23 2206ft 0kts
14-May-18 19:53 34.939816 -119.693383 23 2206ft 0kts
14-May-18 19:54 34.939816 -119.693383 23 2206ft 0kts
14-May-18 19:55 34.939816 -119.693383 23 2206ft 0kts
14-May-18 19:56 34.939816 -119.693383 23 2206ft 0kts
14-May-18 19:57 34.939816 -119.693383 23 2206ft 0kts
14-May-18 19:58 34.939816 -119.693383 23 2206ft 0kts
14-May-18 19:59 34.939816 -119.693383 23 2206ft 0kts
14-May-18 20:00 34.939816 -119.693383 23 2206ft 0kts
14-May-18 20:01 34.939816 -119.693383 23 2206ft 0kts
14-May-18 20:02 34.939816 -119.693383 23 2206ft 0kts
14-May-18 20:03 34.939816 -119.693383 23 2206ft 0kts
14-May-18 20:04 34.939816 -119.693383 23 2206ft 0kts
14-May-18 20:05 34.939816 -119.693383 23 2206ft 0kts
14-May-18 20:06 34.939816 -119.693383 23 2206ft 0kts
14-May-18 20:07 34.939816 -119.693383 23 2206ft 0kts
14-May-18 20:08 34.939816 -119.693383 23 2206ft 0kts
14-May-18 20:09 34.939816 -119.693383 23 2206ft 0kts
14-May-18 20:10 34.939816 -119.693383 23 2206ft 0kts
14-May-18 20:11 34.939816 -119.693383 23 2206ft 0kts
14-May-18 20:12 34.939816 -119.693382 23 2206ft 0kts
14-May-18 20:13 34.939820 -119.693381 23 2206ft 0kts
14-May-18 20:14 34.939823 -119.693379 23 2206ft 0kts
14-May-18 20:15 34.939811 -119.693494 182 2206ft 2kts
14-May-18 20:16 34.937994 -119.689789 115 2206ft 19kts
14-May-18 20:17 34.936132 -119.684916 114 2206ft 12kts
14-May-18 20:18 34.935320 -119.682969 119 2206ft 0kts
14-May-18 20:19 34.935320 -119.682969 119 2206ft 0kts
14-May-18 20:20 34.935319 -119.682968 119 2206ft 0kts
14-May-18 20:21 34.935300 -119.682642 5 2206ft 0kts
14-May-18 20:22 34.935408 -119.683058 292 2206ft 0kts
14-May-18 20:23 34.940565 -119.695983 300 2442ft 79kts
14-May-18 20:24 34.955730 -119.718446 314 3162ft 85kts
14-May-18 20:25 34.972938 -119.739544 316 3991ft 81kts
14-May-18 20:26 34.989622 -119.759648 314 4694ft 85kts
14-May-18 20:27 35.008134 -119.779613 319 5433ft 89kts
14-May-18 20:28 35.028306 -119.797934 315 6215ft 90kts
14-May-18 20:29 35.049598 -119.821258 322 6438ft 118kts
14-May-18 20:30 35.075919 -119.845749 314 6444ft 117kts
14-May-18 20:31 35.095462 -119.878746 297 6468ft 121kts
14-May-18 20:32 35.102395 -119.919079 288 6365ft 119kts
14-May-18 20:33 35.111372 -119.956913 283 6347ft 116kts
14-May-18 20:34 35.117395 -119.995141 281 6296ft 107kts
14-May-18 20:35 35.123230 -120.029723 284 6329ft 102kts
14-May-18 20:36 35.131793 -120.062906 288 6490ft 104kts
14-May-18 20:37 35.138893 -120.096767 279 6690ft 105kts
14-May-18 20:38 35.143341 -120.132848 277 6652ft 107kts
14-May-18 20:39 35.148289 -120.169905 281 6558ft 114kts
14-May-18 20:40 35.154216 -120.208240 282 6532ft 114kts
14-May-18 20:41 35.161982 -120.246110 285 6424ft 119kts
14-May-18 20:42 35.171023 -120.286772 286 5938ft 124kts
14-May-18 20:43 35.179411 -120.327366 280 5610ft 123kts
14-May-18 20:44 35.184667 -120.368209 277 5403ft 118kts
14-May-18 20:45 35.189742 -120.408276 277 5056ft 120kts
14-May-18 20:46 35.193093 -120.449457 273 4666ft 124kts
14-May-18 20:47 35.192771 -120.492444 268 4057ft 120kts
14-May-18 20:48 35.193783 -120.521178 276 3340ft 108kts
14-May-18 20:49 35.193783 -120.521178 276 3340ft 108kts
14-May-18 20:50 35.194163 -120.526006 276 3229ft 106kts
14-May-18 20:51 35.194831 -120.533552 276 2984ft 109kts
14-May-18 20:52 35.201011 -120.567435 287 2031ft 90kts
14-May-18 20:53 35.210821 -120.594122 302 1302ft 83kts
14-May-18 20:54 35.222256 -120.614713 308 726ft 65kts
14-May-18 20:55 35.230787 -120.629670 304 338ft 51kts
14-May-18 20:56 35.237357 -120.641044 304 215ft 27kts
14-May-18 20:57 35.238227 -120.641423 80 215ft 0kts
14-May-18 20:58 35.238845 -120.640951 338 215ft 0kts
14-May-18 21:00 35.238846 -120.640951 338 215ft 0kts

Navigation Log

Ident Type
1. L88 Airport
2. FLW Navaid
3. KSBP Airport